sensor_id;sensor_type;location;lat;lon;timestamp;temperature;humidity
13464;DHT22;6804;48.774;9.174;2022-12-04T00:00:51;4.10;99.90
13464;DHT22;6804;48.774;9.174;2022-12-04T00:03:22;4.10;99.90
13464;DHT22;6804;48.774;9.174;2022-12-04T00:05:49;4.00;99.90
13464;DHT22;6804;48.774;9.174;2022-12-04T00:08:17;4.10;99.90
13464;DHT22;6804;48.774;9.174;2022-12-04T00:10:44;4.10;99.90
13464;DHT22;6804;48.774;9.174;2022-12-04T00:13:12;3.90;99.90
13464;DHT22;6804;48.774;9.174;2022-12-04T00:15:44;3.90;99.90
13464;DHT22;6804;48.774;9.174;2022-12-04T00:18:14;4.00;99.90
13464;DHT22;6804;48.774;9.174;2022-12-04T00:20:45;4.10;99.90
13464;DHT22;6804;48.774;9.174;2022-12-04T00:23:13;4.00;99.90
13464;DHT22;6804;48.774;9.174;2022-12-04T00:25:40;3.90;99.90
13464;DHT22;6804;48.774;9.174;2022-12-04T00:28:08;3.70;99.90
13464;DHT22;6804;48.774;9.174;2022-12-04T00:30:39;3.70;99.90
13464;DHT22;6804;48.774;9.174;2022-12-04T00:33:07;3.70;99.90
13464;DHT22;6804;48.774;9.174;2022-12-04T00:35:34;3.80;99.90
13464;DHT22;6804;48.774;9.174;2022-12-04T00:38:03;3.70;99.90
13464;DHT22;6804;48.774;9.174;2022-12-04T00:40:30;3.70;99.90
13464;DHT22;6804;48.774;9.174;2022-12-04T00:42:58;3.80;99.90
13464;DHT22;6804;48.774;9.174;2022-12-04T00:45:28;3.90;99.90
13464;DHT22;6804;48.774;9.174;2022-12-04T00:47:56;3.90;99.90
13464;DHT22;6804;48.774;9.174;2022-12-04T00:50:23;4.00;99.90
13464;DHT22;6804;48.774;9.174;2022-12-04T00:52:51;4.00;99.90
13464;DHT22;6804;48.774;9.174;2022-12-04T00:55:22;4.00;99.90
13464;DHT22;6804;48.774;9.174;2022-12-04T00:57:51;4.00;99.90
13464;DHT22;6804;48.774;9.174;2022-12-04T01:00:21;3.90;99.90
13464;DHT22;6804;48.774;9.174;2022-12-04T01:02:51;3.80;99.90
13464;DHT22;6804;48.774;9.174;2022-12-04T01:05:19;3.60;99.90
13464;DHT22;6804;48.774;9.174;2022-12-04T01:07:46;3.50;99.90
13464;DHT22;6804;48.774;9.174;2022-12-04T01:10:13;3.40;99.90
13464;DHT22;6804;48.774;9.174;2022-12-04T01:12:42;3.30;99.90
13464;DHT22;6804;48.774;9.174;2022-12-04T01:15:12;3.30;99.90
13464;DHT22;6804;48.774;9.174;2022-12-04T01:17:39;3.30;99.90
13464;DHT22;6804;48.774;9.174;2022-12-04T01:20:14;3.30;99.90
13464;DHT22;6804;48.774;9.174;2022-12-04T01:22:44;3.20;99.90
13464;DHT22;6804;48.774;9.174;2022-12-04T01:25:12;3.20;99.90
13464;DHT22;6804;48.774;9.174;2022-12-04T01:27:40;3.10;99.90
13464;DHT22;6804;48.774;9.174;2022-12-04T01:30:09;3.20;99.90
13464;DHT22;6804;48.774;9.174;2022-12-04T01:32:39;3.20;99.90
13464;DHT22;6804;48.774;9.174;2022-12-04T01:35:08;3.30;99.90
13464;DHT22;6804;48.774;9.174;2022-12-04T01:37:36;3.30;99.90
13464;DHT22;6804;48.774;9.174;2022-12-04T01:40:05;3.30;99.90
13464;DHT22;6804;48.774;9.174;2022-12-04T01:42:32;3.20;99.90
13464;DHT22;6804;48.774;9.174;2022-12-04T01:45:33;3.20;99.90
13464;DHT22;6804;48.774;9.174;2022-12-04T01:48:11;3.10;99.90
13464;DHT22;6804;48.774;9.174;2022-12-04T01:50:40;3.10;99.90
13464;DHT22;6804;48.774;9.174;2022-12-04T01:53:08;3.20;99.90
13464;DHT22;6804;48.774;9.174;2022-12-04T01:55:36;3.20;99.90
13464;DHT22;6804;48.774;9.174;2022-12-04T01:58:03;3.30;99.90
13464;DHT22;6804;48.774;9.174;2022-12-04T02:00:36;3.30;99.90
13464;DHT22;6804;48.774;9.174;2022-12-04T02:03:03;3.30;99.90
13464;DHT22;6804;48.774;9.174;2022-12-04T02:05:34;3.30;99.90
13464;DHT22;6804;48.774;9.174;2022-12-04T02:08:04;3.30;99.90
13464;DHT22;6804;48.774;9.174;2022-12-04T02:10:38;3.20;99.90
13464;DHT22;6804;48.774;9.174;2022-12-04T02:13:15;3.30;99.90
13464;DHT22;6804;48.774;9.174;2022-12-04T02:18:16;3.30;99.90
13464;DHT22;6804;48.774;9.174;2022-12-04T02:20:52;3.30;99.90
13464;DHT22;6804;48.774;9.174;2022-12-04T02:23:33;3.30;99.90
13464;DHT22;6804;48.774;9.174;2022-12-04T02:26:21;3.30;99.90
13464;DHT22;6804;48.774;9.174;2022-12-04T02:28:56;3.40;99.90
13464;DHT22;6804;48.774;9.174;2022-12-04T02:31:29;3.40;99.90
13464;DHT22;6804;48.774;9.174;2022-12-04T02:34:02;3.50;99.90
13464;DHT22;6804;48.774;9.174;2022-12-04T02:36:39;3.40;99.90
13464;DHT22;6804;48.774;9.174;2022-12-04T02:39:14;3.50;99.90
13464;DHT22;6804;48.774;9.174;2022-12-04T02:41:46;3.50;99.90
13464;DHT22;6804;48.774;9.174;2022-12-04T02:44:22;3.50;99.90
13464;DHT22;6804;48.774;9.174;2022-12-04T02:46:57;3.50;99.90
13464;DHT22;6804;48.774;9.174;2022-12-04T02:49:35;3.50;99.90
13464;DHT22;6804;48.774;9.174;2022-12-04T02:52:07;3.40;99.90
13464;DHT22;6804;48.774;9.174;2022-12-04T02:54:39;3.40;99.90
13464;DHT22;6804;48.774;9.174;2022-12-04T02:57:14;3.40;99.90
13464;DHT22;6804;48.774;9.174;2022-12-04T02:59:46;3.40;99.90
13464;DHT22;6804;48.774;9.174;2022-12-04T03:02:18;3.40;99.90
13464;DHT22;6804;48.774;9.174;2022-12-04T03:04:55;3.50;99.90
13464;DHT22;6804;48.774;9.174;2022-12-04T03:07:26;3.50;99.90
13464;DHT22;6804;48.774;9.174;2022-12-04T03:09:58;3.60;99.90
13464;DHT22;6804;48.774;9.174;2022-12-04T03:12:35;3.60;99.90
13464;DHT22;6804;48.774;9.174;2022-12-04T03:15:09;3.50;99.90
13464;DHT22;6804;48.774;9.174;2022-12-04T03:17:44;3.40;99.90
13464;DHT22;6804;48.774;9.174;2022-12-04T03:20:14;3.40;99.90
13464;DHT22;6804;48.774;9.174;2022-12-04T03:22:46;3.40;99.90
13464;DHT22;6804;48.774;9.174;2022-12-04T03:25:16;3.60;99.90
13464;DHT22;6804;48.774;9.174;2022-12-04T03:27:50;3.60;99.90
13464;DHT22;6804;48.774;9.174;2022-12-04T03:30:26;3.60;99.90
13464;DHT22;6804;48.774;9.174;2022-12-04T03:33:04;3.60;99.90
13464;DHT22;6804;48.774;9.174;2022-12-04T03:35:40;3.50;99.90
13464;DHT22;6804;48.774;9.174;2022-12-04T03:38:13;3.50;99.90
13464;DHT22;6804;48.774;9.174;2022-12-04T03:40:51;3.50;99.90
13464;DHT22;6804;48.774;9.174;2022-12-04T03:43:25;3.50;99.90
13464;DHT22;6804;48.774;9.174;2022-12-04T03:45:57;3.50;99.90
13464;DHT22;6804;48.774;9.174;2022-12-04T03:48:28;3.50;99.90
13464;DHT22;6804;48.774;9.174;2022-12-04T03:51:03;3.50;99.90
13464;DHT22;6804;48.774;9.174;2022-12-04T03:53:38;3.50;99.90
13464;DHT22;6804;48.774;9.174;2022-12-04T03:56:16;3.50;99.90
13464;DHT22;6804;48.774;9.174;2022-12-04T03:58:47;3.40;99.90
13464;DHT22;6804;48.774;9.174;2022-12-04T04:01:20;3.30;99.90
13464;DHT22;6804;48.774;9.174;2022-12-04T04:03:56;3.30;99.90
13464;DHT22;6804;48.774;9.174;2022-12-04T04:06:30;3.30;99.90
13464;DHT22;6804;48.774;9.174;2022-12-04T04:09:08;3.40;99.90
13464;DHT22;6804;48.774;9.174;2022-12-04T04:11:41;3.40;99.90
13464;DHT22;6804;48.774;9.174;2022-12-04T04:14:13;3.50;99.90
13464;DHT22;6804;48.774;9.174;2022-12-04T04:17:05;3.50;99.90
13464;DHT22;6804;48.774;9.174;2022-12-04T04:19:55;3.50;99.90
13464;DHT22;6804;48.774;9.174;2022-12-04T04:22:42;3.60;99.90
13464;DHT22;6804;48.774;9.174;2022-12-04T04:25:27;3.50;99.90
13464;DHT22;6804;48.774;9.174;2022-12-04T04:27:58;3.60;99.90
13464;DHT22;6804;48.774;9.174;2022-12-04T04:30:31;3.60;99.90
13464;DHT22;6804;48.774;9.174;2022-12-04T04:33:06;3.60;99.90
13464;DHT22;6804;48.774;9.174;2022-12-04T04:35:42;3.50;99.90
13464;DHT22;6804;48.774;9.174;2022-12-04T04:38:17;3.40;99.90
13464;DHT22;6804;48.774;9.174;2022-12-04T04:40:53;3.40;99.90
13464;DHT22;6804;48.774;9.174;2022-12-04T04:43:28;3.40;99.90
13464;DHT22;6804;48.774;9.174;2022-12-04T04:46:01;3.50;99.90
13464;DHT22;6804;48.774;9.174;2022-12-04T04:48:38;3.50;99.90
13464;DHT22;6804;48.774;9.174;2022-12-04T04:51:09;3.50;99.90
13464;DHT22;6804;48.774;9.174;2022-12-04T04:53:39;3.60;99.90
13464;DHT22;6804;48.774;9.174;2022-12-04T04:56:10;3.70;99.90
13464;DHT22;6804;48.774;9.174;2022-12-04T04:58:38;3.60;99.90
13464;DHT22;6804;48.774;9.174;2022-12-04T05:01:08;3.50;99.90
13464;DHT22;6804;48.774;9.174;2022-12-04T05:03:38;3.50;99.90
13464;DHT22;6804;48.774;9.174;2022-12-04T05:06:06;3.40;99.90
13464;DHT22;6804;48.774;9.174;2022-12-04T05:08:35;3.30;99.90
13464;DHT22;6804;48.774;9.174;2022-12-04T05:11:10;3.20;99.90
13464;DHT22;6804;48.774;9.174;2022-12-04T05:13:37;3.20;99.90
13464;DHT22;6804;48.774;9.174;2022-12-04T05:16:10;3.20;99.90
13464;DHT22;6804;48.774;9.174;2022-12-04T05:18:39;3.20;99.90
13464;DHT22;6804;48.774;9.174;2022-12-04T05:21:09;3.30;99.90
13464;DHT22;6804;48.774;9.174;2022-12-04T05:23:40;3.30;99.90
13464;DHT22;6804;48.774;9.174;2022-12-04T05:26:08;3.30;99.90
13464;DHT22;6804;48.774;9.174;2022-12-04T05:28:35;3.40;99.90
13464;DHT22;6804;48.774;9.174;2022-12-04T05:31:08;3.40;99.90
13464;DHT22;6804;48.774;9.174;2022-12-04T05:33:40;3.30;99.90
13464;DHT22;6804;48.774;9.174;2022-12-04T05:36:09;3.20;99.90
13464;DHT22;6804;48.774;9.174;2022-12-04T05:38:39;3.10;99.90
13464;DHT22;6804;48.774;9.174;2022-12-04T05:41:07;3.10;99.90
13464;DHT22;6804;48.774;9.174;2022-12-04T05:43:35;3.00;99.90
13464;DHT22;6804;48.774;9.174;2022-12-04T05:46:04;3.00;99.90
13464;DHT22;6804;48.774;9.174;2022-12-04T05:48:35;3.00;99.90
13464;DHT22;6804;48.774;9.174;2022-12-04T05:51:09;2.90;99.90
13464;DHT22;6804;48.774;9.174;2022-12-04T05:53:40;2.80;99.90
13464;DHT22;6804;48.774;9.174;2022-12-04T05:56:07;2.80;99.90
13464;DHT22;6804;48.774;9.174;2022-12-04T05:58:35;2.80;99.90
13464;DHT22;6804;48.774;9.174;2022-12-04T06:01:08;2.90;99.90
13464;DHT22;6804;48.774;9.174;2022-12-04T06:03:39;3.00;99.90
13464;DHT22;6804;48.774;9.174;2022-12-04T06:06:16;3.00;99.90
13464;DHT22;6804;48.774;9.174;2022-12-04T06:08:45;3.10;99.90
13464;DHT22;6804;48.774;9.174;2022-12-04T06:11:14;3.10;99.90
13464;DHT22;6804;48.774;9.174;2022-12-04T06:13:43;3.20;99.90
13464;DHT22;6804;48.774;9.174;2022-12-04T06:16:14;3.20;99.90
13464;DHT22;6804;48.774;9.174;2022-12-04T06:18:48;3.20;99.90
13464;DHT22;6804;48.774;9.174;2022-12-04T06:21:17;3.20;99.90
13464;DHT22;6804;48.774;9.174;2022-12-04T06:23:52;3.30;99.90
13464;DHT22;6804;48.774;9.174;2022-12-04T06:26:20;3.30;99.90
13464;DHT22;6804;48.774;9.174;2022-12-04T06:28:51;3.20;99.90
13464;DHT22;6804;48.774;9.174;2022-12-04T06:31:18;3.10;99.90
13464;DHT22;6804;48.774;9.174;2022-12-04T06:33:49;3.10;99.90
13464;DHT22;6804;48.774;9.174;2022-12-04T06:36:21;3.10;99.90
13464;DHT22;6804;48.774;9.174;2022-12-04T06:38:52;3.20;99.90
13464;DHT22;6804;48.774;9.174;2022-12-04T06:41:20;3.20;99.90
13464;DHT22;6804;48.774;9.174;2022-12-04T06:43:51;3.30;99.90
13464;DHT22;6804;48.774;9.174;2022-12-04T06:46:20;3.30;99.90
13464;DHT22;6804;48.774;9.174;2022-12-04T06:48:50;3.30;99.90
13464;DHT22;6804;48.774;9.174;2022-12-04T06:51:21;3.20;99.90
13464;DHT22;6804;48.774;9.174;2022-12-04T06:53:51;3.20;99.90
13464;DHT22;6804;48.774;9.174;2022-12-04T06:56:21;3.30;99.90
13464;DHT22;6804;48.774;9.174;2022-12-04T06:58:50;3.30;99.90
13464;DHT22;6804;48.774;9.174;2022-12-04T07:01:21;3.30;99.90
13464;DHT22;6804;48.774;9.174;2022-12-04T07:03:52;3.30;99.90
13464;DHT22;6804;48.774;9.174;2022-12-04T07:06:23;3.30;99.90
13464;DHT22;6804;48.774;9.174;2022-12-04T07:08:51;3.30;99.90
13464;DHT22;6804;48.774;9.174;2022-12-04T07:11:20;3.30;99.90
13464;DHT22;6804;48.774;9.174;2022-12-04T07:13:50;3.30;99.90
13464;DHT22;6804;48.774;9.174;2022-12-04T07:16:21;3.30;99.90
13464;DHT22;6804;48.774;9.174;2022-12-04T07:18:49;3.30;99.90
13464;DHT22;6804;48.774;9.174;2022-12-04T07:21:21;3.30;99.90
13464;DHT22;6804;48.774;9.174;2022-12-04T07:23:49;3.30;99.90
13464;DHT22;6804;48.774;9.174;2022-12-04T07:26:17;3.20;99.90
13464;DHT22;6804;48.774;9.174;2022-12-04T07:28:48;3.20;99.90
13464;DHT22;6804;48.774;9.174;2022-12-04T07:31:18;3.30;99.90
13464;DHT22;6804;48.774;9.174;2022-12-04T07:33:46;3.40;99.90
13464;DHT22;6804;48.774;9.174;2022-12-04T07:36:15;3.40;99.90
13464;DHT22;6804;48.774;9.174;2022-12-04T07:38:46;3.50;99.90
13464;DHT22;6804;48.774;9.174;2022-12-04T07:41:19;3.50;99.90
13464;DHT22;6804;48.774;9.174;2022-12-04T07:43:46;3.60;99.90
13464;DHT22;6804;48.774;9.174;2022-12-04T07:46:15;3.60;99.90
13464;DHT22;6804;48.774;9.174;2022-12-04T07:48:43;3.50;99.90
13464;DHT22;6804;48.774;9.174;2022-12-04T07:51:12;3.50;99.90
13464;DHT22;6804;48.774;9.174;2022-12-04T07:53:40;3.40;99.90
13464;DHT22;6804;48.774;9.174;2022-12-04T07:56:13;3.50;99.90
13464;DHT22;6804;48.774;9.174;2022-12-04T07:58:41;3.40;99.90
13464;DHT22;6804;48.774;9.174;2022-12-04T08:01:10;3.40;99.90
13464;DHT22;6804;48.774;9.174;2022-12-04T08:03:45;3.30;99.90
13464;DHT22;6804;48.774;9.174;2022-12-04T08:06:13;3.30;99.90
13464;DHT22;6804;48.774;9.174;2022-12-04T08:08:40;3.30;99.90
13464;DHT22;6804;48.774;9.174;2022-12-04T08:11:14;3.30;99.90
13464;DHT22;6804;48.774;9.174;2022-12-04T08:13:41;3.30;99.90
13464;DHT22;6804;48.774;9.174;2022-12-04T08:16:12;3.30;99.90
13464;DHT22;6804;48.774;9.174;2022-12-04T08:18:42;3.40;99.90
13464;DHT22;6804;48.774;9.174;2022-12-04T08:21:15;3.40;99.90
13464;DHT22;6804;48.774;9.174;2022-12-04T08:23:43;3.50;99.90
13464;DHT22;6804;48.774;9.174;2022-12-04T08:26:16;3.50;99.90
13464;DHT22;6804;48.774;9.174;2022-12-04T08:28:44;3.50;99.90
13464;DHT22;6804;48.774;9.174;2022-12-04T08:31:14;3.60;99.90
13464;DHT22;6804;48.774;9.174;2022-12-04T08:33:42;3.60;99.90
13464;DHT22;6804;48.774;9.174;2022-12-04T08:36:12;3.60;99.90
13464;DHT22;6804;48.774;9.174;2022-12-04T08:38:42;3.60;99.90
13464;DHT22;6804;48.774;9.174;2022-12-04T08:41:13;3.60;99.90
13464;DHT22;6804;48.774;9.174;2022-12-04T08:43:42;3.60;99.90
13464;DHT22;6804;48.774;9.174;2022-12-04T08:46:11;3.60;99.90
13464;DHT22;6804;48.774;9.174;2022-12-04T08:48:45;3.70;99.90
13464;DHT22;6804;48.774;9.174;2022-12-04T08:51:15;3.60;99.90
13464;DHT22;6804;48.774;9.174;2022-12-04T08:53:42;3.50;99.90
13464;DHT22;6804;48.774;9.174;2022-12-04T08:56:10;3.50;99.90
13464;DHT22;6804;48.774;9.174;2022-12-04T08:58:42;3.50;99.90
13464;DHT22;6804;48.774;9.174;2022-12-04T09:01:12;3.50;99.90
13464;DHT22;6804;48.774;9.174;2022-12-04T09:03:45;3.60;99.90
13464;DHT22;6804;48.774;9.174;2022-12-04T09:06:13;3.60;99.90
13464;DHT22;6804;48.774;9.174;2022-12-04T09:08:41;3.60;99.90
13464;DHT22;6804;48.774;9.174;2022-12-04T09:11:12;3.60;99.90
13464;DHT22;6804;48.774;9.174;2022-12-04T09:13:46;3.60;99.90
13464;DHT22;6804;48.774;9.174;2022-12-04T09:16:15;3.50;99.90
13464;DHT22;6804;48.774;9.174;2022-12-04T09:18:43;3.50;99.90
13464;DHT22;6804;48.774;9.174;2022-12-04T09:21:15;3.50;99.90
13464;DHT22;6804;48.774;9.174;2022-12-04T09:23:46;3.50;99.90
13464;DHT22;6804;48.774;9.174;2022-12-04T09:26:18;3.60;99.90
13464;DHT22;6804;48.774;9.174;2022-12-04T09:28:49;3.60;99.90
13464;DHT22;6804;48.774;9.174;2022-12-04T09:31:24;3.70;99.90
13464;DHT22;6804;48.774;9.174;2022-12-04T09:33:54;3.70;99.90
13464;DHT22;6804;48.774;9.174;2022-12-04T09:36:27;3.60;99.90
13464;DHT22;6804;48.774;9.174;2022-12-04T09:38:55;3.70;99.90
13464;DHT22;6804;48.774;9.174;2022-12-04T09:42:10;3.70;99.90
13464;DHT22;6804;48.774;9.174;2022-12-04T09:44:47;3.70;99.90
13464;DHT22;6804;48.774;9.174;2022-12-04T09:47:20;3.80;99.90
13464;DHT22;6804;48.774;9.174;2022-12-04T09:49:53;3.90;99.90
13464;DHT22;6804;48.774;9.174;2022-12-04T09:52:39;4.00;99.90
13464;DHT22;6804;48.774;9.174;2022-12-04T09:55:19;4.10;99.90
13464;DHT22;6804;48.774;9.174;2022-12-04T09:57:53;4.20;99.90
13464;DHT22;6804;48.774;9.174;2022-12-04T10:00:27;4.20;99.90
13464;DHT22;6804;48.774;9.174;2022-12-04T10:02:59;4.10;99.90
13464;DHT22;6804;48.774;9.174;2022-12-04T10:05:41;4.10;99.90
13464;DHT22;6804;48.774;9.174;2022-12-04T10:08:17;4.10;99.90
13464;DHT22;6804;48.774;9.174;2022-12-04T10:10:55;4.10;99.90
13464;DHT22;6804;48.774;9.174;2022-12-04T10:14:01;4.10;99.90
13464;DHT22;6804;48.774;9.174;2022-12-04T10:16:42;4.10;99.90
13464;DHT22;6804;48.774;9.174;2022-12-04T10:19:18;4.20;99.90
13464;DHT22;6804;48.774;9.174;2022-12-04T10:22:02;4.30;99.90
13464;DHT22;6804;48.774;9.174;2022-12-04T10:24:41;4.40;99.90
13464;DHT22;6804;48.774;9.174;2022-12-04T10:27:18;4.30;99.90
13464;DHT22;6804;48.774;9.174;2022-12-04T10:29:51;4.10;99.90
13464;DHT22;6804;48.774;9.174;2022-12-04T10:32:25;4.10;99.90
13464;DHT22;6804;48.774;9.174;2022-12-04T10:34:57;4.10;99.90
13464;DHT22;6804;48.774;9.174;2022-12-04T10:37:27;4.10;99.90
13464;DHT22;6804;48.774;9.174;2022-12-04T10:40:00;4.20;99.90
13464;DHT22;6804;48.774;9.174;2022-12-04T10:42:31;4.30;99.90
13464;DHT22;6804;48.774;9.174;2022-12-04T10:45:04;4.30;99.90
13464;DHT22;6804;48.774;9.174;2022-12-04T10:47:37;4.20;99.90
13464;DHT22;6804;48.774;9.174;2022-12-04T10:50:16;4.20;99.90
13464;DHT22;6804;48.774;9.174;2022-12-04T10:52:46;4.20;99.90
13464;DHT22;6804;48.774;9.174;2022-12-04T10:55:14;4.10;99.90
13464;DHT22;6804;48.774;9.174;2022-12-04T10:57:48;4.20;99.90
13464;DHT22;6804;48.774;9.174;2022-12-04T11:00:30;4.20;99.90
13464;DHT22;6804;48.774;9.174;2022-12-04T11:03:01;4.10;99.90
13464;DHT22;6804;48.774;9.174;2022-12-04T11:05:31;4.00;99.90
13464;DHT22;6804;48.774;9.174;2022-12-04T11:08:04;3.90;99.90
13464;DHT22;6804;48.774;9.174;2022-12-04T11:10:38;4.00;99.90
13464;DHT22;6804;48.774;9.174;2022-12-04T11:13:19;3.90;99.90
13464;DHT22;6804;48.774;9.174;2022-12-04T11:15:49;3.90;99.90
13464;DHT22;6804;48.774;9.174;2022-12-04T11:18:20;3.90;99.90
13464;DHT22;6804;48.774;9.174;2022-12-04T11:20:50;3.90;99.90
13464;DHT22;6804;48.774;9.174;2022-12-04T11:23:21;3.80;99.90
13464;DHT22;6804;48.774;9.174;2022-12-04T11:25:51;3.80;99.90
13464;DHT22;6804;48.774;9.174;2022-12-04T11:28:21;3.70;99.90
13464;DHT22;6804;48.774;9.174;2022-12-04T11:30:52;3.70;99.90
13464;DHT22;6804;48.774;9.174;2022-12-04T11:33:32;3.70;99.90
13464;DHT22;6804;48.774;9.174;2022-12-04T11:36:02;3.70;99.90
13464;DHT22;6804;48.774;9.174;2022-12-04T11:38:36;3.70;99.90
13464;DHT22;6804;48.774;9.174;2022-12-04T11:41:20;3.70;99.90
13464;DHT22;6804;48.774;9.174;2022-12-04T11:43:50;3.70;99.90
13464;DHT22;6804;48.774;9.174;2022-12-04T11:46:20;3.70;99.90
13464;DHT22;6804;48.774;9.174;2022-12-04T11:48:50;3.80;99.90
13464;DHT22;6804;48.774;9.174;2022-12-04T11:51:24;3.70;99.90
13464;DHT22;6804;48.774;9.174;2022-12-04T11:54:10;3.70;99.90
13464;DHT22;6804;48.774;9.174;2022-12-04T11:56:56;3.70;99.90
13464;DHT22;6804;48.774;9.174;2022-12-04T11:59:52;3.70;99.90
13464;DHT22;6804;48.774;9.174;2022-12-04T12:02:50;3.80;99.90
13464;DHT22;6804;48.774;9.174;2022-12-04T12:06:06;4.00;99.90
13464;DHT22;6804;48.774;9.174;2022-12-04T12:08:58;4.10;99.90
13464;DHT22;6804;48.774;9.174;2022-12-04T12:11:33;4.30;99.90
13464;DHT22;6804;48.774;9.174;2022-12-04T12:14:06;4.40;99.90
13464;DHT22;6804;48.774;9.174;2022-12-04T12:16:45;4.40;99.90
13464;DHT22;6804;48.774;9.174;2022-12-04T12:22:33;4.50;99.90
13464;DHT22;6804;48.774;9.174;2022-12-04T12:25:13;4.60;99.90
13464;DHT22;6804;48.774;9.174;2022-12-04T12:28:02;4.70;99.90
13464;DHT22;6804;48.774;9.174;2022-12-04T12:30:45;4.70;99.90
13464;DHT22;6804;48.774;9.174;2022-12-04T12:33:18;4.80;99.90
13464;DHT22;6804;48.774;9.174;2022-12-04T12:35:53;4.70;99.90
13464;DHT22;6804;48.774;9.174;2022-12-04T12:38:28;4.70;99.90
13464;DHT22;6804;48.774;9.174;2022-12-04T12:41:05;4.70;99.90
13464;DHT22;6804;48.774;9.174;2022-12-04T12:43:36;4.80;99.90
13464;DHT22;6804;48.774;9.174;2022-12-04T12:46:13;4.80;99.90
13464;DHT22;6804;48.774;9.174;2022-12-04T12:48:50;4.80;99.90
13464;DHT22;6804;48.774;9.174;2022-12-04T12:51:29;4.80;99.90
13464;DHT22;6804;48.774;9.174;2022-12-04T12:54:12;4.80;99.90
13464;DHT22;6804;48.774;9.174;2022-12-04T12:56:46;4.80;99.90
13464;DHT22;6804;48.774;9.174;2022-12-04T12:59:18;4.80;99.90
13464;DHT22;6804;48.774;9.174;2022-12-04T13:01:56;4.80;99.90
13464;DHT22;6804;48.774;9.174;2022-12-04T13:04:31;4.90;99.90
13464;DHT22;6804;48.774;9.174;2022-12-04T13:07:18;4.90;99.90
13464;DHT22;6804;48.774;9.174;2022-12-04T13:09:53;4.80;99.90
13464;DHT22;6804;48.774;9.174;2022-12-04T13:12:23;4.90;99.90
13464;DHT22;6804;48.774;9.174;2022-12-04T13:14:52;4.90;99.90
13464;DHT22;6804;48.774;9.174;2022-12-04T13:17:29;4.90;99.90
13464;DHT22;6804;48.774;9.174;2022-12-04T13:19:59;4.90;99.90
13464;DHT22;6804;48.774;9.174;2022-12-04T13:22:34;4.90;99.90
13464;DHT22;6804;48.774;9.174;2022-12-04T13:25:27;4.90;99.90
13464;DHT22;6804;48.774;9.174;2022-12-04T13:28:09;4.90;99.90
13464;DHT22;6804;48.774;9.174;2022-12-04T13:30:47;4.90;99.90
13464;DHT22;6804;48.774;9.174;2022-12-04T13:33:45;4.80;99.90
13464;DHT22;6804;48.774;9.174;2022-12-04T13:36:29;4.70;99.90
13464;DHT22;6804;48.774;9.174;2022-12-04T13:42:23;4.80;99.90
13464;DHT22;6804;48.774;9.174;2022-12-04T13:44:55;4.80;99.90
13464;DHT22;6804;48.774;9.174;2022-12-04T13:47:32;4.80;99.90
13464;DHT22;6804;48.774;9.174;2022-12-04T13:50:20;4.90;99.90
13464;DHT22;6804;48.774;9.174;2022-12-04T13:52:52;4.80;99.90
13464;DHT22;6804;48.774;9.174;2022-12-04T13:55:31;4.80;99.90
13464;DHT22;6804;48.774;9.174;2022-12-04T13:58:04;4.80;99.90
13464;DHT22;6804;48.774;9.174;2022-12-04T14:01:05;4.80;99.90
13464;DHT22;6804;48.774;9.174;2022-12-04T14:03:46;4.80;99.90
13464;DHT22;6804;48.774;9.174;2022-12-04T14:06:24;4.90;99.90
13464;DHT22;6804;48.774;9.174;2022-12-04T14:08:56;4.90;99.90
13464;DHT22;6804;48.774;9.174;2022-12-04T14:11:26;4.90;99.90
13464;DHT22;6804;48.774;9.174;2022-12-04T14:13:56;5.00;99.90
13464;DHT22;6804;48.774;9.174;2022-12-04T14:16:30;5.00;99.90
13464;DHT22;6804;48.774;9.174;2022-12-04T14:19:01;5.00;99.90
13464;DHT22;6804;48.774;9.174;2022-12-04T14:21:38;5.00;99.90
13464;DHT22;6804;48.774;9.174;2022-12-04T14:24:15;5.00;99.90
13464;DHT22;6804;48.774;9.174;2022-12-04T14:26:47;5.00;99.90
13464;DHT22;6804;48.774;9.174;2022-12-04T14:29:40;5.00;99.90
13464;DHT22;6804;48.774;9.174;2022-12-04T14:32:15;5.10;99.90
13464;DHT22;6804;48.774;9.174;2022-12-04T14:34:43;5.10;99.90
13464;DHT22;6804;48.774;9.174;2022-12-04T14:37:20;5.10;99.90
13464;DHT22;6804;48.774;9.174;2022-12-04T14:39:52;5.10;99.90
13464;DHT22;6804;48.774;9.174;2022-12-04T14:42:24;5.10;99.90
13464;DHT22;6804;48.774;9.174;2022-12-04T14:44:55;5.10;99.90
13464;DHT22;6804;48.774;9.174;2022-12-04T14:47:37;5.10;99.90
13464;DHT22;6804;48.774;9.174;2022-12-04T14:50:28;5.10;99.90
13464;DHT22;6804;48.774;9.174;2022-12-04T14:53:13;5.10;99.90
13464;DHT22;6804;48.774;9.174;2022-12-04T14:55:56;5.20;99.90
13464;DHT22;6804;48.774;9.174;2022-12-04T14:58:29;5.20;99.90
13464;DHT22;6804;48.774;9.174;2022-12-04T15:01:19;5.20;99.90
13464;DHT22;6804;48.774;9.174;2022-12-04T15:04:10;5.20;99.90
13464;DHT22;6804;48.774;9.174;2022-12-04T15:06:40;5.20;99.90
13464;DHT22;6804;48.774;9.174;2022-12-04T15:09:16;5.20;99.90
13464;DHT22;6804;48.774;9.174;2022-12-04T15:12:13;5.20;99.90
13464;DHT22;6804;48.774;9.174;2022-12-04T15:15:07;5.20;99.90
13464;DHT22;6804;48.774;9.174;2022-12-04T15:17:37;5.20;99.90
13464;DHT22;6804;48.774;9.174;2022-12-04T15:20:14;5.10;99.90
13464;DHT22;6804;48.774;9.174;2022-12-04T15:22:46;5.10;99.90
13464;DHT22;6804;48.774;9.174;2022-12-04T15:25:18;5.10;99.90
13464;DHT22;6804;48.774;9.174;2022-12-04T15:27:52;5.10;99.90
13464;DHT22;6804;48.774;9.174;2022-12-04T15:30:25;5.10;99.90
13464;DHT22;6804;48.774;9.174;2022-12-04T15:32:59;5.10;99.90
13464;DHT22;6804;48.774;9.174;2022-12-04T15:35:30;5.10;99.90
13464;DHT22;6804;48.774;9.174;2022-12-04T15:38:02;5.10;99.90
13464;DHT22;6804;48.774;9.174;2022-12-04T15:40:37;5.20;99.90
13464;DHT22;6804;48.774;9.174;2022-12-04T15:43:28;5.20;99.90
13464;DHT22;6804;48.774;9.174;2022-12-04T15:45:57;5.20;99.90
13464;DHT22;6804;48.774;9.174;2022-12-04T15:48:29;5.20;99.90
13464;DHT22;6804;48.774;9.174;2022-12-04T15:51:00;5.10;99.90
13464;DHT22;6804;48.774;9.174;2022-12-04T15:53:42;5.00;99.90
13464;DHT22;6804;48.774;9.174;2022-12-04T15:56:17;5.00;99.90
13464;DHT22;6804;48.774;9.174;2022-12-04T15:58:55;5.00;99.90
13464;DHT22;6804;48.774;9.174;2022-12-04T16:01:24;5.00;99.90
13464;DHT22;6804;48.774;9.174;2022-12-04T16:03:56;5.00;99.90
13464;DHT22;6804;48.774;9.174;2022-12-04T16:06:26;5.00;99.90
13464;DHT22;6804;48.774;9.174;2022-12-04T16:08:59;4.90;99.90
13464;DHT22;6804;48.774;9.174;2022-12-04T16:11:30;4.80;99.90
13464;DHT22;6804;48.774;9.174;2022-12-04T16:14:17;4.60;99.90
13464;DHT22;6804;48.774;9.174;2022-12-04T16:16:50;4.60;99.90
13464;DHT22;6804;48.774;9.174;2022-12-04T16:19:29;4.60;99.90
13464;DHT22;6804;48.774;9.174;2022-12-04T16:21:58;4.70;99.90
13464;DHT22;6804;48.774;9.174;2022-12-04T16:24:26;4.80;99.90
13464;DHT22;6804;48.774;9.174;2022-12-04T16:26:58;4.90;99.90
13464;DHT22;6804;48.774;9.174;2022-12-04T16:29:27;5.00;99.90
13464;DHT22;6804;48.774;9.174;2022-12-04T16:31:57;4.90;99.90
13464;DHT22;6804;48.774;9.174;2022-12-04T16:34:29;4.90;99.90
13464;DHT22;6804;48.774;9.174;2022-12-04T16:36:58;5.00;99.90
13464;DHT22;6804;48.774;9.174;2022-12-04T16:39:26;5.00;99.90
13464;DHT22;6804;48.774;9.174;2022-12-04T16:41:56;4.90;99.90
13464;DHT22;6804;48.774;9.174;2022-12-04T16:44:25;5.00;99.90
13464;DHT22;6804;48.774;9.174;2022-12-04T16:46:55;5.00;99.90
13464;DHT22;6804;48.774;9.174;2022-12-04T16:49:28;5.00;99.90
13464;DHT22;6804;48.774;9.174;2022-12-04T16:51:59;5.00;99.90